sensor_id;sensor_type;location;lat;lon;timestamp;pressure;altitude;pressure_sealevel;temperature;humidity
40954;BME280;26686;50.130;8.710;2022-08-01T00:04:00;100085.69;;;24.24;52.36
40954;BME280;26686;50.130;8.710;2022-08-01T00:09:01;100090.53;;;24.15;52.43
40954;BME280;26686;50.130;8.710;2022-08-01T00:14:03;100085.28;;;24.21;53.00
40954;BME280;26686;50.130;8.710;2022-08-01T00:19:04;100088.84;;;24.21;53.03
40954;BME280;26686;50.130;8.710;2022-08-01T00:24:06;100086.38;;;24.13;52.96
40954;BME280;26686;50.130;8.710;2022-08-01T00:29:14;100094.97;;;24.10;54.03
40954;BME280;26686;50.130;8.710;2022-08-01T00:34:36;100089.97;;;24.00;53.41
40954;BME280;26686;50.130;8.710;2022-08-01T00:39:37;100080.63;;;23.89;54.46
40954;BME280;26686;50.130;8.710;2022-08-01T00:44:39;100080.41;;;23.91;54.47
40954;BME280;26686;50.130;8.710;2022-08-01T00:49:41;100067.88;;;23.83;54.89
40954;BME280;26686;50.130;8.710;2022-08-01T00:54:43;100076.22;;;23.88;54.75
40954;BME280;26686;50.130;8.710;2022-08-01T00:59:44;100086.28;;;23.88;55.08
40954;BME280;26686;50.130;8.710;2022-08-01T01:04:48;100086.28;;;23.88;55.03
40954;BME280;26686;50.130;8.710;2022-08-01T01:09:58;100092.13;;;23.85;55.22
40954;BME280;26686;50.130;8.710;2022-08-01T01:15:08;100090.88;;;23.87;55.45
40954;BME280;26686;50.130;8.710;2022-08-01T01:20:12;100089.38;;;23.91;55.41
40954;BME280;26686;50.130;8.710;2022-08-01T01:30:28;100094.59;;;23.93;55.56
40954;BME280;26686;50.130;8.710;2022-08-01T01:35:34;100102.97;;;23.91;56.13
40954;BME280;26686;50.130;8.710;2022-08-01T01:40:37;100102.38;;;23.82;56.24
40954;BME280;26686;50.130;8.710;2022-08-01T01:45:40;100107.16;;;23.80;56.38
40954;BME280;26686;50.130;8.710;2022-08-01T01:50:42;100103.41;;;23.75;56.47
40954;BME280;26686;50.130;8.710;2022-08-01T01:55:46;100106.00;;;23.63;55.77
40954;BME280;26686;50.130;8.710;2022-08-01T02:00:52;100106.59;;;23.58;57.07
40954;BME280;26686;50.130;8.710;2022-08-01T02:05:55;100109.16;;;23.40;56.67
40954;BME280;26686;50.130;8.710;2022-08-01T02:10:58;100115.88;;;23.17;58.33
40954;BME280;26686;50.130;8.710;2022-08-01T02:16:21;100117.31;;;23.26;58.14
40954;BME280;26686;50.130;8.710;2022-08-01T02:21:30;100112.72;;;23.34;58.23
40954;BME280;26686;50.130;8.710;2022-08-01T02:26:32;100116.44;;;23.46;57.67
40954;BME280;26686;50.130;8.710;2022-08-01T02:31:38;100116.06;;;23.42;57.91
40954;BME280;26686;50.130;8.710;2022-08-01T02:36:43;100116.66;;;23.44;57.02
40954;BME280;26686;50.130;8.710;2022-08-01T02:41:48;100119.16;;;23.46;57.04
40954;BME280;26686;50.130;8.710;2022-08-01T02:47:01;100119.38;;;23.44;57.51
40954;BME280;26686;50.130;8.710;2022-08-01T02:52:08;100110.84;;;23.41;57.48
40954;BME280;26686;50.130;8.710;2022-08-01T02:57:12;100113.94;;;23.44;57.69
40954;BME280;26686;50.130;8.710;2022-08-01T03:02:19;100118.97;;;23.41;57.91
40954;BME280;26686;50.130;8.710;2022-08-01T03:07:22;100118.13;;;23.40;57.79
40954;BME280;26686;50.130;8.710;2022-08-01T03:12:35;100123.78;;;23.39;57.68
40954;BME280;26686;50.130;8.710;2022-08-01T03:17:40;100118.16;;;23.34;58.10
40954;BME280;26686;50.130;8.710;2022-08-01T03:22:43;100122.75;;;23.26;58.40
40954;BME280;26686;50.130;8.710;2022-08-01T03:27:51;100125.06;;;23.23;58.42
40954;BME280;26686;50.130;8.710;2022-08-01T03:32:55;100116.06;;;23.29;58.28
40954;BME280;26686;50.130;8.710;2022-08-01T03:37:59;100124.44;;;23.27;58.11
40954;BME280;26686;50.130;8.710;2022-08-01T03:43:32;100128.59;;;23.23;58.11
40954;BME280;26686;50.130;8.710;2022-08-01T03:48:40;100130.25;;;23.18;58.34
40954;BME280;26686;50.130;8.710;2022-08-01T03:53:45;100127.34;;;23.19;58.72
40954;BME280;26686;50.130;8.710;2022-08-01T03:58:49;100132.75;;;23.19;58.72
40954;BME280;26686;50.130;8.710;2022-08-01T04:03:51;100125.03;;;23.16;59.19
40954;BME280;26686;50.130;8.710;2022-08-01T04:08:53;100135.06;;;23.22;59.01
40954;BME280;26686;50.130;8.710;2022-08-01T04:13:58;100140.50;;;23.22;58.68
40954;BME280;26686;50.130;8.710;2022-08-01T04:18:59;100137.38;;;23.12;59.11
40954;BME280;26686;50.130;8.710;2022-08-01T04:24:09;100144.06;;;23.09;59.80
40954;BME280;26686;50.130;8.710;2022-08-01T04:29:14;100140.25;;;23.04;59.90
40954;BME280;26686;50.130;8.710;2022-08-01T04:34:20;100141.53;;;23.08;59.11
40954;BME280;26686;50.130;8.710;2022-08-01T04:39:26;100141.75;;;23.13;59.51
40954;BME280;26686;50.130;8.710;2022-08-01T04:44:29;100147.19;;;23.13;59.48
40954;BME280;26686;50.130;8.710;2022-08-01T04:49:34;100145.72;;;23.17;59.23
40954;BME280;26686;50.130;8.710;2022-08-01T04:54:49;100154.44;;;23.06;59.06
40954;BME280;26686;50.130;8.710;2022-08-01T04:59:50;100157.38;;;22.84;60.10
40954;BME280;26686;50.130;8.710;2022-08-01T05:04:58;100169.22;;;22.63;61.37
40954;BME280;26686;50.130;8.710;2022-08-01T05:10:00;100166.13;;;22.73;60.88
40954;BME280;26686;50.130;8.710;2022-08-01T05:15:06;100169.03;;;22.85;60.86
40954;BME280;26686;50.130;8.710;2022-08-01T05:20:14;100179.09;;;22.91;59.86
40954;BME280;26686;50.130;8.710;2022-08-01T05:25:16;100180.28;;;22.68;61.77
40954;BME280;26686;50.130;8.710;2022-08-01T05:30:20;100186.16;;;22.78;61.64
40954;BME280;26686;50.130;8.710;2022-08-01T05:35:22;100188.88;;;22.78;60.96
40954;BME280;26686;50.130;8.710;2022-08-01T05:40:44;100184.69;;;22.89;60.44
40954;BME280;26686;50.130;8.710;2022-08-01T05:45:45;100194.34;;;22.99;61.19
40954;BME280;26686;50.130;8.710;2022-08-01T05:50:47;100191.84;;;22.97;60.52
40954;BME280;26686;50.130;8.710;2022-08-01T05:55:48;100185.78;;;23.02;60.79
40954;BME280;26686;50.130;8.710;2022-08-01T06:00:50;100191.00;;;23.03;59.65
40954;BME280;26686;50.130;8.710;2022-08-01T06:05:52;100198.88;;;22.85;60.92
40954;BME280;26686;50.130;8.710;2022-08-01T06:10:54;100194.72;;;22.82;60.96
40954;BME280;26686;50.130;8.710;2022-08-01T06:15:55;100200.38;;;23.01;60.32
40954;BME280;26686;50.130;8.710;2022-08-01T06:20:57;100208.75;;;22.92;61.07
40954;BME280;26686;50.130;8.710;2022-08-01T06:25:58;100216.50;;;23.09;60.81
40954;BME280;26686;50.130;8.710;2022-08-01T06:31:00;100222.19;;;23.27;60.63
40954;BME280;26686;50.130;8.710;2022-08-01T06:36:01;100217.16;;;23.18;60.14
40954;BME280;26686;50.130;8.710;2022-08-01T06:41:02;100221.13;;;23.15;60.45
40954;BME280;26686;50.130;8.710;2022-08-01T06:46:04;100225.28;;;23.18;60.06
40954;BME280;26686;50.130;8.710;2022-08-01T06:51:05;100224.66;;;23.22;59.96
40954;BME280;26686;50.130;8.710;2022-08-01T06:56:10;100231.16;;;23.28;60.61
40954;BME280;26686;50.130;8.710;2022-08-01T07:01:11;100224.69;;;23.49;60.28
40954;BME280;26686;50.130;8.710;2022-08-01T07:06:13;100231.78;;;23.77;59.31
40954;BME280;26686;50.130;8.710;2022-08-01T07:11:16;100230.09;;;23.76;59.14
40954;BME280;26686;50.130;8.710;2022-08-01T07:16:17;100212.53;;;23.98;59.43
40954;BME280;26686;50.130;8.710;2022-08-01T07:21:19;100214.75;;;24.28;59.08
40954;BME280;26686;50.130;8.710;2022-08-01T07:26:49;100218.28;;;24.81;57.49
40954;BME280;26686;50.130;8.710;2022-08-01T07:31:56;100206.44;;;25.32;55.83
40954;BME280;26686;50.130;8.710;2022-08-01T07:36:58;100222.09;;;25.12;55.72
40954;BME280;26686;50.130;8.710;2022-08-01T07:41:59;100210.50;;;24.84;55.45
40954;BME280;26686;50.130;8.710;2022-08-01T07:47:08;100211.72;;;24.95;56.20
40954;BME280;26686;50.130;8.710;2022-08-01T07:52:09;100214.00;;;25.30;54.46
40954;BME280;26686;50.130;8.710;2022-08-01T07:57:11;100210.28;;;25.50;54.09
40954;BME280;26686;50.130;8.710;2022-08-01T08:02:12;100213.00;;;25.50;54.21
40954;BME280;26686;50.130;8.710;2022-08-01T08:07:15;100210.97;;;25.45;53.80
40954;BME280;26686;50.130;8.710;2022-08-01T08:12:16;100209.84;;;25.53;53.63
40954;BME280;26686;50.130;8.710;2022-08-01T08:17:18;100216.88;;;25.86;52.99
40954;BME280;26686;50.130;8.710;2022-08-01T08:22:20;100207.50;;;25.56;53.33
40954;BME280;26686;50.130;8.710;2022-08-01T08:27:21;100223.22;;;25.80;52.83
40954;BME280;26686;50.130;8.710;2022-08-01T08:32:22;100225.78;;;25.74;52.99
40954;BME280;26686;50.130;8.710;2022-08-01T08:37:24;100220.28;;;25.56;53.19
40954;BME280;26686;50.130;8.710;2022-08-01T08:42:31;100226.59;;;25.31;53.92
40954;BME280;26686;50.130;8.710;2022-08-01T08:47:34;100223.94;;;25.43;54.09
40954;BME280;26686;50.130;8.710;2022-08-01T08:52:37;100226.13;;;25.59;54.09
40954;BME280;26686;50.130;8.710;2022-08-01T08:57:43;100235.94;;;25.67;53.27
40954;BME280;26686;50.130;8.710;2022-08-01T09:02:47;100232.56;;;25.65;52.78
40954;BME280;26686;50.130;8.710;2022-08-01T09:07:50;100223.34;;;25.66;52.49
40954;BME280;26686;50.130;8.710;2022-08-01T09:13:12;100230.84;;;25.71;53.48
40954;BME280;26686;50.130;8.710;2022-08-01T09:18:27;100222.00;;;25.75;52.57
40954;BME280;26686;50.130;8.710;2022-08-01T09:23:32;100229.44;;;25.87;51.46
40954;BME280;26686;50.130;8.710;2022-08-01T09:28:35;100228.88;;;26.03;50.97
40954;BME280;26686;50.130;8.710;2022-08-01T09:33:56;100228.03;;;26.40;49.65
40954;BME280;26686;50.130;8.710;2022-08-01T09:39:12;100226.72;;;27.22;49.15
40954;BME280;26686;50.130;8.710;2022-08-01T09:44:14;100219.72;;;27.26;48.53
40954;BME280;26686;50.130;8.710;2022-08-01T09:49:36;100217.06;;;27.49;47.49
40954;BME280;26686;50.130;8.710;2022-08-01T09:54:57;100215.03;;;28.04;44.66
40954;BME280;26686;50.130;8.710;2022-08-01T10:00:00;100216.97;;;28.44;44.24
40954;BME280;26686;50.130;8.710;2022-08-01T10:05:04;100213.66;;;29.00;43.15
40954;BME280;26686;50.130;8.710;2022-08-01T10:10:13;100209.50;;;29.43;41.71
40954;BME280;26686;50.130;8.710;2022-08-01T10:15:17;100206.31;;;29.85;41.14
40954;BME280;26686;50.130;8.710;2022-08-01T10:20:20;100199.88;;;28.95;41.23
40954;BME280;26686;50.130;8.710;2022-08-01T10:25:36;100208.00;;;29.35;41.18
40954;BME280;26686;50.130;8.710;2022-08-01T10:30:44;100207.31;;;29.11;41.18
40954;BME280;26686;50.130;8.710;2022-08-01T10:35:46;100205.81;;;29.54;40.70
40954;BME280;26686;50.130;8.710;2022-08-01T10:40:49;100190.47;;;30.81;37.52
40954;BME280;26686;50.130;8.710;2022-08-01T10:45:51;100184.03;;;30.97;37.58
40954;BME280;26686;50.130;8.710;2022-08-01T10:50:54;100180.34;;;31.14;38.06
40954;BME280;26686;50.130;8.710;2022-08-01T10:56:01;100175.53;;;30.72;37.92
40954;BME280;26686;50.130;8.710;2022-08-01T11:01:23;100171.97;;;30.49;37.20
40954;BME280;26686;50.130;8.710;2022-08-01T11:28:20;100169.03;;;28.70;40.67
40954;BME280;26686;50.130;8.710;2022-08-01T11:38:44;100149.81;;;29.16;39.73
40954;BME280;26686;50.130;8.710;2022-08-01T11:44:06;100140.78;;;30.33;37.82
40954;BME280;26686;50.130;8.710;2022-08-01T11:55:03;100126.97;;;31.10;35.02
40954;BME280;26686;50.130;8.710;2022-08-01T12:00:14;100124.69;;;31.34;35.82
40954;BME280;26686;50.130;8.710;2022-08-01T12:05:18;100126.81;;;31.64;35.01
40954;BME280;26686;50.130;8.710;2022-08-01T12:10:27;100120.66;;;31.47;33.76
40954;BME280;26686;50.130;8.710;2022-08-01T12:15:37;100109.09;;;31.50;33.70
40954;BME280;26686;50.130;8.710;2022-08-01T12:20:40;100121.03;;;31.61;34.07
40954;BME280;26686;50.130;8.710;2022-08-01T12:25:57;100120.31;;;31.43;34.58
40954;BME280;26686;50.130;8.710;2022-08-01T12:30:58;100117.41;;;31.55;33.78
40954;BME280;26686;50.130;8.710;2022-08-01T12:36:00;100102.31;;;31.63;33.99
40954;BME280;26686;50.130;8.710;2022-08-01T12:41:01;100109.94;;;32.08;33.21
40954;BME280;26686;50.130;8.710;2022-08-01T12:46:03;100104.63;;;31.81;33.55
40954;BME280;26686;50.130;8.710;2022-08-01T12:51:04;100108.69;;;31.26;33.82
40954;BME280;26686;50.130;8.710;2022-08-01T12:56:06;100107.50;;;30.84;34.51
40954;BME280;26686;50.130;8.710;2022-08-01T13:01:09;100105.06;;;30.55;34.65
40954;BME280;26686;50.130;8.710;2022-08-01T13:06:12;100095.53;;;30.63;34.94
40954;BME280;26686;50.130;8.710;2022-08-01T13:11:16;100092.81;;;30.68;35.09
40954;BME280;26686;50.130;8.710;2022-08-01T13:16:21;100102.38;;;30.93;33.79
40954;BME280;26686;50.130;8.710;2022-08-01T13:21:34;100103.38;;;30.81;34.40
40954;BME280;26686;50.130;8.710;2022-08-01T13:26:57;100105.13;;;30.65;34.51
40954;BME280;26686;50.130;8.710;2022-08-01T13:32:15;100099.06;;;30.58;35.18
40954;BME280;26686;50.130;8.710;2022-08-01T13:37:30;100102.78;;;30.47;35.38
40954;BME280;26686;50.130;8.710;2022-08-01T13:42:33;100093.44;;;29.99;35.49
40954;BME280;26686;50.130;8.710;2022-08-01T13:47:34;100100.13;;;30.08;34.85
40954;BME280;26686;50.130;8.710;2022-08-01T13:52:36;100103.56;;;29.76;35.62
40954;BME280;26686;50.130;8.710;2022-08-01T13:57:37;100106.28;;;29.54;36.69
40954;BME280;26686;50.130;8.710;2022-08-01T14:02:39;100112.47;;;29.10;37.10
40954;BME280;26686;50.130;8.710;2022-08-01T14:07:41;100107.31;;;28.97;37.15
40954;BME280;26686;50.130;8.710;2022-08-01T14:12:48;100105.47;;;28.68;37.18
40954;BME280;26686;50.130;8.710;2022-08-01T14:17:51;100095.75;;;28.61;37.74
40954;BME280;26686;50.130;8.710;2022-08-01T14:22:52;100097.09;;;28.46;38.18
40954;BME280;26686;50.130;8.710;2022-08-01T14:27:54;100105.72;;;28.38;38.62
40954;BME280;26686;50.130;8.710;2022-08-01T14:32:55;100116.00;;;28.31;39.45
40954;BME280;26686;50.130;8.710;2022-08-01T14:37:57;100116.75;;;28.43;39.57
40954;BME280;26686;50.130;8.710;2022-08-01T14:43:00;100107.88;;;28.36;39.49
40954;BME280;26686;50.130;8.710;2022-08-01T14:48:02;100107.00;;;28.47;39.86
40954;BME280;26686;50.130;8.710;2022-08-01T14:53:04;100101.16;;;28.72;39.56
40954;BME280;26686;50.130;8.710;2022-08-01T14:58:05;100106.81;;;28.83;39.65
40954;BME280;26686;50.130;8.710;2022-08-01T15:03:06;100111.06;;;28.73;38.63
40954;BME280;26686;50.130;8.710;2022-08-01T15:08:08;100102.50;;;28.70;38.65
40954;BME280;26686;50.130;8.710;2022-08-01T15:13:09;100102.03;;;28.90;39.00
40954;BME280;26686;50.130;8.710;2022-08-01T15:18:11;100105.66;;;28.96;38.46
40954;BME280;26686;50.130;8.710;2022-08-01T15:23:12;100103.59;;;29.03;38.31
40954;BME280;26686;50.130;8.710;2022-08-01T15:28:14;100108.16;;;28.80;38.96
40954;BME280;26686;50.130;8.710;2022-08-01T15:33:16;100104.97;;;28.71;39.44
40954;BME280;26686;50.130;8.710;2022-08-01T15:38:17;100099.69;;;28.65;39.29
40954;BME280;26686;50.130;8.710;2022-08-01T15:43:20;100103.00;;;28.55;39.25
40954;BME280;26686;50.130;8.710;2022-08-01T15:48:21;100109.91;;;28.57;39.07
40954;BME280;26686;50.130;8.710;2022-08-01T15:53:23;100114.31;;;28.30;38.41
40954;BME280;26686;50.130;8.710;2022-08-01T15:58:24;100120.47;;;28.37;38.95
40954;BME280;26686;50.130;8.710;2022-08-01T16:03:26;100115.19;;;28.47;38.10
40954;BME280;26686;50.130;8.710;2022-08-01T16:08:27;100116.63;;;28.50;38.23
40954;BME280;26686;50.130;8.710;2022-08-01T16:13:29;100114.88;;;28.44;38.31
40954;BME280;26686;50.130;8.710;2022-08-01T16:18:30;100105.22;;;28.41;39.05
40954;BME280;26686;50.130;8.710;2022-08-01T16:23:32;100113.03;;;28.49;38.97
40954;BME280;26686;50.130;8.710;2022-08-01T16:28:33;100114.72;;;28.21;38.54
40954;BME280;26686;50.130;8.710;2022-08-01T16:33:35;100106.31;;;28.11;38.72
40954;BME280;26686;50.130;8.710;2022-08-01T16:38:53;100110.09;;;28.10;39.06
40954;BME280;26686;50.130;8.710;2022-08-01T16:43:55;100106.94;;;28.01;38.61
40954;BME280;26686;50.130;8.710;2022-08-01T16:48:56;100098.38;;;27.86;38.93
40954;BME280;26686;50.130;8.710;2022-08-01T16:53:58;100103.72;;;27.93;39.21
40954;BME280;26686;50.130;8.710;2022-08-01T16:59:00;100106.09;;;28.01;38.58
40954;BME280;26686;50.130;8.710;2022-08-01T17:04:01;100100.19;;;27.80;38.98
40954;BME280;26686;50.130;8.710;2022-08-01T17:09:03;100096.38;;;27.81;37.95
40954;BME280;26686;50.130;8.710;2022-08-01T17:14:05;100104.25;;;27.66;39.08
40954;BME280;26686;50.130;8.710;2022-08-01T17:19:06;100098.69;;;27.49;39.43
40954;BME280;26686;50.130;8.710;2022-08-01T17:24:08;100111.66;;;27.54;40.02
40954;BME280;26686;50.130;8.710;2022-08-01T17:29:10;100116.50;;;27.51;40.05
40954;BME280;26686;50.130;8.710;2022-08-01T17:34:11;100118.06;;;27.47;40.45
40954;BME280;26686;50.130;8.710;2022-08-01T17:39:13;100116.50;;;27.40;40.62
40954;BME280;26686;50.130;8.710;2022-08-01T17:44:14;100118.91;;;27.36;40.95
40954;BME280;26686;50.130;8.710;2022-08-01T17:49:16;100115.81;;;27.32;41.30
40954;BME280;26686;50.130;8.710;2022-08-01T17:54:37;100130.88;;;27.35;41.29
40954;BME280;26686;50.130;8.710;2022-08-01T17:59:39;100123.59;;;27.29;41.16
40954;BME280;26686;50.130;8.710;2022-08-01T18:04:40;100129.78;;;27.24;41.11
40954;BME280;26686;50.130;8.710;2022-08-01T18:09:44;100123.34;;;27.07;41.30
40954;BME280;26686;50.130;8.710;2022-08-01T18:14:46;100131.88;;;26.87;42.05
40954;BME280;26686;50.130;8.710;2022-08-01T18:19:49;100139.34;;;26.79;41.83
40954;BME280;26686;50.130;8.710;2022-08-01T18:24:51;100139.44;;;26.73;41.99
40954;BME280;26686;50.130;8.710;2022-08-01T18:29:52;100141.66;;;26.64;42.04
40954;BME280;26686;50.130;8.710;2022-08-01T18:34:54;100153.03;;;26.61;42.71
40954;BME280;26686;50.130;8.710;2022-08-01T18:39:55;100143.50;;;26.52;42.41
40954;BME280;26686;50.130;8.710;2022-08-01T18:44:57;100151.63;;;26.40;42.77
40954;BME280;26686;50.130;8.710;2022-08-01T18:49:58;100162.03;;;26.31;42.56
40954;BME280;26686;50.130;8.710;2022-08-01T18:55:00;100163.19;;;26.23;43.23
40954;BME280;26686;50.130;8.710;2022-08-01T19:00:03;100175.38;;;26.21;43.38
40954;BME280;26686;50.130;8.710;2022-08-01T19:05:05;100173.25;;;26.04;43.82
40954;BME280;26686;50.130;8.710;2022-08-01T19:10:06;100173.50;;;26.03;43.56
40954;BME280;26686;50.130;8.710;2022-08-01T19:15:08;100173.78;;;25.94;43.96
40954;BME280;26686;50.130;8.710;2022-08-01T19:20:10;100190.81;;;25.90;43.67
40954;BME280;26686;50.130;8.710;2022-08-01T19:25:13;100198.00;;;25.84;43.91
40954;BME280;26686;50.130;8.710;2022-08-01T19:30:16;100204.75;;;25.82;44.08
40954;BME280;26686;50.130;8.710;2022-08-01T19:35:18;100214.88;;;25.74;44.50
40954;BME280;26686;50.130;8.710;2022-08-01T19:40:20;100213.91;;;25.69;44.34
40954;BME280;26686;50.130;8.710;2022-08-01T19:45:28;100226.91;;;25.67;45.15
40954;BME280;26686;50.130;8.710;2022-08-01T19:50:31;100230.59;;;25.54;45.13
40954;BME280;26686;50.130;8.710;2022-08-01T19:55:33;100237.47;;;25.56;44.87
40954;BME280;26686;50.130;8.710;2022-08-01T20:00:40;100248.00;;;25.53;45.04
40954;BME280;26686;50.130;8.710;2022-08-01T20:05:43;100241.31;;;25.49;45.05
40954;BME280;26686;50.130;8.710;2022-08-01T20:10:45;100251.00;;;25.45;45.48
40954;BME280;26686;50.130;8.710;2022-08-01T20:15:47;100258.38;;;25.37;45.36
40954;BME280;26686;50.130;8.710;2022-08-01T20:20:50;100264.34;;;25.21;46.24
40954;BME280;26686;50.130;8.710;2022-08-01T20:25:54;100266.19;;;24.95;48.00
40954;BME280;26686;50.130;8.710;2022-08-01T20:30:59;100267.81;;;24.96;48.64
40954;BME280;26686;50.130;8.710;2022-08-01T20:36:06;100259.94;;;24.88;49.18
40954;BME280;26686;50.130;8.710;2022-08-01T20:41:26;100266.25;;;24.82;50.08
40954;BME280;26686;50.130;8.710;2022-08-01T20:46:28;100286.34;;;24.81;50.51
40954;BME280;26686;50.130;8.710;2022-08-01T20:51:30;100285.78;;;24.65;51.11
40954;BME280;26686;50.130;8.710;2022-08-01T20:56:57;100286.66;;;24.59;50.67
40954;BME280;26686;50.130;8.710;2022-08-01T21:02:17;100290.84;;;24.42;51.52
40954;BME280;26686;50.130;8.710;2022-08-01T21:07:27;100304.31;;;24.23;52.17
40954;BME280;26686;50.130;8.710;2022-08-01T21:17:47;100304.13;;;23.98;53.72
40954;BME280;26686;50.130;8.710;2022-08-01T21:28:14;100297.44;;;24.00;53.56
40954;BME280;26686;50.130;8.710;2022-08-01T21:33:16;100304.13;;;23.91;53.57
40954;BME280;26686;50.130;8.710;2022-08-01T21:38:17;100305.41;;;23.89;54.18
40954;BME280;26686;50.130;8.710;2022-08-01T21:43:20;100311.25;;;23.86;53.95
40954;BME280;26686;50.130;8.710;2022-08-01T21:48:23;100320.38;;;23.78;54.27
40954;BME280;26686;50.130;8.710;2022-08-01T21:53:49;100327.50;;;23.79;54.20
40954;BME280;26686;50.130;8.710;2022-08-01T22:09:55;100329.16;;;23.40;54.90
40954;BME280;26686;50.130;8.710;2022-08-01T22:15:01;100343.75;;;23.39;55.09
40954;BME280;26686;50.130;8.710;2022-08-01T22:20:03;100343.72;;;23.19;55.44
40954;BME280;26686;50.130;8.710;2022-08-01T22:25:05;100344.13;;;23.22;55.85
40954;BME280;26686;50.130;8.710;2022-08-01T22:30:10;100339.56;;;23.23;55.60
40954;BME280;26686;50.130;8.710;2022-08-01T22:35:14;100346.84;;;23.22;55.86
40954;BME280;26686;50.130;8.710;2022-08-01T22:40:16;100345.81;;;23.17;55.84
40954;BME280;26686;50.130;8.710;2022-08-01T22:45:36;100345.38;;;23.13;56.26
40954;BME280;26686;50.130;8.710;2022-08-01T22:50:50;100341.19;;;23.10;56.25
40954;BME280;26686;50.130;8.710;2022-08-01T22:55:55;100351.56;;;23.00;56.61
40954;BME280;26686;50.130;8.710;2022-08-01T23:01:01;100351.13;;;22.97;56.61
40954;BME280;26686;50.130;8.710;2022-08-01T23:06:08;100354.84;;;22.82;56.67
40954;BME280;26686;50.130;8.710;2022-08-01T23:11:10;100353.56;;;22.78;57.13
40954;BME280;26686;50.130;8.710;2022-08-01T23:16:12;100356.47;;;22.76;57.43
40954;BME280;26686;50.130;8.710;2022-08-01T23:21:18;100343.91;;;22.69;57.55
40954;BME280;26686;50.130;8.710;2022-08-01T23:26:21;100340.13;;;22.70;57.65
40954;BME280;26686;50.130;8.710;2022-08-01T23:31:24;100341.94;;;22.56;58.28
40954;BME280;26686;50.130;8.710;2022-08-01T23:36:46;100351.56;;;22.58;57.83
40954;BME280;26686;50.130;8.710;2022-08-01T23:41:48;100367.13;;;22.43;58.59
40954;BME280;26686;50.130;8.710;2022-08-01T23:46:59;100355.88;;;22.46;58.49
40954;BME280;26686;50.130;8.710;2022-08-01T23:52:01;100360.72;;;22.29;58.97
40954;BME280;26686;50.130;8.710;2022-08-01T23:57:03;100368.31;;;22.34;58.63
